Time;durP1;ratioP1;P1;durP2;ratioP2;P2;SDS_P1;SDS_P2;PMS_P1;PMS_P2;Temp;Humidity;BMP_temperature;BMP_pressure;BME280_temperature;BME280_humidity;BME280_pressure;Samples;Min_cycle;Max_cycle;Signal;HPM_P1;HPM_P2
2024/01/17 00:01:23;;;;;;;7.40;3.90;;;;;;;-3.82;51.32;99922.88;105747;1251;60579;-67
2024/01/17 00:03:50;;;;;;;8.70;4.30;;;;;;;-3.87;51.48;99924.39;105884;1254;64007;-68
2024/01/17 00:06:17;;;;;;;12.20;6.40;;;;;;;-3.92;51.49;99924.88;105638;1253;60516;-68
2024/01/17 00:08:44;;;;;;;16.90;8.00;;;;;;;-3.95;51.54;99920.84;105722;1254;60461;-68
2024/01/17 00:11:11;;;;;;;16.40;7.50;;;;;;;-3.98;51.56;99923.99;105861;1254;65228;-68
2024/01/17 00:13:38;;;;;;;16.40;8.30;;;;;;;-4.01;51.53;99929.45;105809;1251;60458;-67
2024/01/17 00:16:05;;;;;;;18.50;8.10;;;;;;;-4.09;51.51;99938.91;105944;1256;63503;-67
2024/01/17 00:18:31;;;;;;;19.40;7.90;;;;;;;-4.17;51.55;99940.67;105985;1251;60438;-68
2024/01/17 00:20:58;;;;;;;12.20;6.30;;;;;;;-4.25;51.58;99943.81;106040;1251;61075;-68
2024/01/17 00:23:25;;;;;;;11.40;5.80;;;;;;;-4.31;51.47;99943.46;105887;1251;63874;-68
2024/01/17 00:25:51;;;;;;;10.20;6.00;;;;;;;-4.39;51.49;99943.50;105929;1257;60469;-68
2024/01/17 00:28:19;;;;;;;9.70;5.40;;;;;;;-4.47;51.60;99943.36;105904;1254;63841;-67
2024/01/17 00:30:46;;;;;;;10.80;5.40;;;;;;;-4.55;51.55;99941.33;105850;1254;60358;-67
2024/01/17 00:33:13;;;;;;;11.50;5.50;;;;;;;-4.64;51.63;99940.52;105955;1251;60470;-69
2024/01/17 00:35:41;;;;;;;15.80;6.70;;;;;;;-4.72;51.84;99944.30;105779;1256;65246;-69
2024/01/17 00:38:08;;;;;;;15.70;7.30;;;;;;;-4.79;51.93;99948.92;105954;1251;60533;-69
2024/01/17 00:40:34;;;;;;;15.20;7.60;;;;;;;-4.83;51.99;99953.66;105826;1256;63834;-68
2024/01/17 00:43:01;;;;;;;22.30;9.20;;;;;;;-4.87;52.16;99958.91;105735;1253;60526;-68
2024/01/17 00:45:28;;;;;;;17.30;7.70;;;;;;;-4.91;52.25;99963.98;105795;1253;60467;-68
2024/01/17 00:47:55;;;;;;;16.50;8.00;;;;;;;-4.96;52.20;99963.92;105646;1257;65084;-68
2024/01/17 00:50:22;;;;;;;18.60;7.90;;;;;;;-5.02;52.19;99966.80;105611;1253;60565;-69
2024/01/17 00:52:49;;;;;;;16.80;8.30;;;;;;;-5.05;52.29;99968.95;105809;1254;64123;-68
2024/01/17 00:55:17;;;;;;;19.90;8.50;;;;;;;-5.10;52.39;99968.55;105661;1253;60526;-66
2024/01/17 00:57:43;;;;;;;18.90;9.50;;;;;;;-5.13;52.42;99973.42;105617;1254;60546;-67
2024/01/17 01:00:11;;;;;;;14.70;7.50;;;;;;;-5.20;52.32;99981.46;105640;1256;65191;-67
2024/01/17 01:02:38;;;;;;;12.10;7.00;;;;;;;-5.33;52.22;99983.98;105669;1251;61013;-68
2024/01/17 01:05:06;;;;;;;11.00;6.20;;;;;;;-5.46;52.19;99988.35;106034;1256;64020;-68
2024/01/17 01:07:33;;;;;;;9.60;5.60;;;;;;;-5.57;52.27;99992.53;105863;1251;60530;-67
2024/01/17 01:10:00;;;;;;;10.20;5.30;;;;;;;-5.66;52.36;99994.41;105704;1253;60503;-66
2024/01/17 01:12:26;;;;;;;9.00;4.80;;;;;;;-5.72;52.59;99995.73;105809;1251;64063;-68
2024/01/17 01:14:53;;;;;;;7.60;4.50;;;;;;;-5.75;52.50;99997.69;105721;1251;60466;-67
2024/01/17 01:17:20;;;;;;;9.10;5.00;;;;;;;-5.83;52.62;100001.95;105898;1254;63681;-67
2024/01/17 01:19:46;;;;;;;9.30;5.50;;;;;;;-5.91;52.67;99999.20;105944;1254;60359;-68
2024/01/17 01:22:13;;;;;;;10.80;5.80;;;;;;;-5.95;52.89;99999.81;105890;1253;60461;-67
2024/01/17 01:24:40;;;;;;;10.70;4.60;;;;;;;-5.96;53.07;100004.11;105920;1256;63776;-68
2024/01/17 01:27:07;;;;;;;9.70;4.90;;;;;;;-5.99;53.07;99997.64;105984;1251;60478;-69
2024/01/17 01:29:34;;;;;;;9.20;5.20;;;;;;;-6.02;53.19;99996.86;105987;1251;63992;-68
2024/01/17 01:32:00;;;;;;;9.30;5.30;;;;;;;-6.06;53.20;99996.58;105963;1251;60380;-68
2024/01/17 01:34:27;;;;;;;9.90;5.50;;;;;;;-6.07;53.32;99996.25;105953;1251;60414;-67
2024/01/17 01:36:54;;;;;;;11.00;5.50;;;;;;;-6.10;53.42;99988.23;105961;1256;65061;-67
2024/01/17 01:39:21;;;;;;;9.50;5.20;;;;;;;-6.11;53.68;99988.42;105959;1252;60353;-68
2024/01/17 01:41:48;;;;;;;8.30;4.40;;;;;;;-6.14;53.75;99989.36;105976;1251;62746;-67
2024/01/17 01:44:17;;;;;;;10.80;5.30;;;;;;;-6.20;53.85;99990.98;105730;1251;60441;-68
2024/01/17 01:46:45;;;;;;;8.40;5.10;;;;;;;-6.23;54.09;99995.85;105887;1251;60534;-68
2024/01/17 01:49:13;;;;;;;14.90;7.80;;;;;;;-6.25;54.23;99998.11;105707;1256;65071;-67
2024/01/17 01:51:44;;;;;;;60.50;24.90;;;;;;;-6.27;54.20;100001.91;105642;1257;60393;-67
2024/01/17 01:54:12;;;;;;;95.60;41.40;;;;;;;-6.26;54.46;99998.83;105740;1256;63815;-69
2024/01/17 01:56:38;;;;;;;93.20;38.20;;;;;;;-6.27;54.62;99994.02;105633;1253;60521;-69
2024/01/17 01:59:06;;;;;;;45.90;20.40;;;;;;;-6.28;54.56;99995.06;105722;1256;60490;-66
2024/01/17 02:01:33;;;;;;;45.80;20.20;;;;;;;-6.33;54.58;99994.82;106109;1251;64979;-68
2024/01/17 02:04:00;;;;;;;35.60;15.40;;;;;;;-6.36;54.55;99996.41;105733;1251;61110;-66
2024/01/17 02:06:31;;;;;;;27.00;12.60;;;;;;;-6.33;54.66;99997.05;105698;1251;63859;-67
2024/01/17 02:08:59;;;;;;;23.70;10.30;;;;;;;-6.28;54.82;99998.50;105857;1251;60444;-67
2024/01/17 02:11:29;;;;;;;22.20;10.30;;;;;;;-6.23;55.00;100003.37;106006;1255;60355;-67
2024/01/17 02:13:57;;;;;;;19.50;10.40;;;;;;;-6.18;54.98;100010.66;105814;1254;65210;-66
2024/01/17 02:16:24;;;;;;;19.70;9.40;;;;;;;-6.15;54.96;100016.45;105810;1251;60534;-67
2024/01/17 02:18:51;;;;;;;22.70;10.40;;;;;;;-6.13;55.05;100027.37;105734;1257;63988;-67
2024/01/17 02:21:18;;;;;;;24.20;12.70;;;;;;;-6.10;55.01;100034.85;105940;1251;60370;-68
2024/01/17 02:23:50;;;;;;;60.50;29.70;;;;;;;-6.10;54.86;100034.16;105778;1251;60412;-68
2024/01/17 02:26:16;;;;;;;59.30;30.90;;;;;;;-6.13;54.67;100036.63;105848;1253;65092;-68
2024/01/17 02:28:45;;;;;;;34.60;18.50;;;;;;;-6.21;54.51;100038.30;105973;1253;60536;-67
2024/01/17 02:31:12;;;;;;;25.60;13.40;;;;;;;-6.29;54.50;100044.93;105949;1253;63831;-68
2024/01/17 02:33:39;;;;;;;36.50;22.40;;;;;;;-6.34;54.42;100052.73;105755;1254;60537;-67
2024/01/17 02:36:06;;;;;;;37.20;23.40;;;;;;;-6.42;54.38;100053.02;105720;1253;60457;-69
2024/01/17 02:38:33;;;;;;;73.50;42.60;;;;;;;-6.49;54.37;100051.77;105909;1256;65255;-67
2024/01/17 02:41:00;;;;;;;74.40;41.30;;;;;;;-6.54;54.40;100051.34;105940;1251;60458;-67
2024/01/17 02:43:28;;;;;;;63.70;35.40;;;;;;;-6.58;54.48;100050.02;105914;1251;63998;-68
2024/01/17 02:45:55;;;;;;;40.90;22.60;;;;;;;-6.63;54.64;100050.95;105963;1257;60349;-68
2024/01/17 02:48:22;;;;;;;25.40;14.70;;;;;;;-6.67;54.66;100057.17;105916;1253;60483;-68
2024/01/17 02:50:49;;;;;;;23.80;11.00;;;;;;;-6.71;54.78;100060.14;105960;1251;63895;-67
2024/01/17 02:53:16;;;;;;;15.90;8.00;;;;;;;-6.73;54.87;100063.27;105984;1251;60410;-68
2024/01/17 02:55:42;;;;;;;13.70;6.80;;;;;;;-6.77;54.86;100064.34;105880;1251;63903;-66
2024/01/17 02:58:09;;;;;;;13.70;7.60;;;;;;;-6.81;54.87;100061.33;105961;1251;60461;-67
2024/01/17 03:00:40;;;;;;;13.80;7.40;;;;;;;-6.84;54.97;100058.28;106001;1253;60453;-67
2024/01/17 03:03:09;;;;;;;17.50;9.40;;;;;;;-6.84;55.04;100061.02;105668;1257;65228;-68
2024/01/17 03:05:37;;;;;;;27.50;14.40;;;;;;;-6.82;55.14;100067.15;105902;1256;60537;-68
2024/01/17 03:08:05;;;;;;;63.10;32.80;;;;;;;-6.81;55.13;100077.23;105697;1251;63817;-67
2024/01/17 03:10:32;;;;;;;50.90;30.00;;;;;;;-6.82;55.06;100082.73;106017;1256;60518;-67
2024/01/17 03:13:00;;;;;;;49.90;26.40;;;;;;;-6.86;54.99;100085.69;105878;1251;60457;-68
2024/01/17 03:15:26;;;;;;;39.90;22.50;;;;;;;-6.90;54.98;100084.39;105960;1251;63676;-67
2024/01/17 03:17:55;;;;;;;29.70;16.90;;;;;;;-6.96;54.98;100088.21;105832;1251;60376;-66
2024/01/17 03:20:22;;;;;;;22.60;13.30;;;;;;;-7.03;54.93;100089.85;105959;1251;64087;-67
2024/01/17 03:22:52;;;;;;;26.90;15.90;;;;;;;-7.08;54.94;100092.13;105914;1251;60431;-67
2024/01/17 03:25:19;;;;;;;26.20;15.30;;;;;;;-7.14;54.93;100092.04;105664;1256;60627;-68
2024/01/17 03:27:46;;;;;;;18.60;10.50;;;;;;;-7.19;55.04;100097.23;105806;1256;75172;-67
2024/01/17 03:30:14;;;;;;;14.90;8.00;;;;;;;-7.22;55.29;100099.49;105916;1251;60520;-67
2024/01/17 03:32:41;;;;;;;14.00;7.50;;;;;;;-7.23;55.25;100101.39;105904;1256;71654;-67
2024/01/17 03:35:09;;;;;;;13.40;7.60;;;;;;;-7.26;55.31;100106.54;105879;1251;60409;-66
2024/01/17 03:37:36;;;;;;;15.00;7.80;;;;;;;-7.29;55.44;100108.97;105621;1253;61039;-67
2024/01/17 03:40:04;;;;;;;14.80;8.60;;;;;;;-7.31;55.45;100109.52;105863;1256;65332;-68
2024/01/17 03:42:31;;;;;;;14.40;7.60;;;;;;;-7.35;55.36;100115.02;105790;1251;60582;-66
2024/01/17 03:44:57;;;;;;;13.30;7.00;;;;;;;-7.41;55.47;100114.08;105896;1256;63859;-66
2024/01/17 03:47:24;;;;;;;13.00;7.10;;;;;;;-7.46;55.66;100116.17;105789;1251;60425;-68
2024/01/17 03:49:51;;;;;;;14.80;7.20;;;;;;;-7.50;55.63;100120.50;105693;1251;309293;-67
2024/01/17 03:52:19;;;;;;;14.30;7.30;;;;;;;-7.53;55.64;100123.09;105733;1256;64957;-68
2024/01/17 03:54:45;;;;;;;19.80;9.10;;;;;;;-7.56;55.71;100126.18;105822;1253;60539;-67
2024/01/17 03:57:12;;;;;;;34.70;14.30;;;;;;;-7.56;55.80;100130.98;105909;1253;63993;-66
2024/01/17 03:59:45;;;;;;;43.70;18.90;;;;;;;-7.58;55.88;100136.64;105886;1251;60371;-66
2024/01/17 04:02:12;;;;;;;50.50;19.00;;;;;;;-7.60;55.78;100147.43;106221;1251;60444;-66
2024/01/17 04:04:40;;;;;;;43.20;18.40;;;;;;;-7.62;55.74;100153.27;105863;1252;65186;-67
2024/01/17 04:07:10;;;;;;;33.80;15.20;;;;;;;-7.67;55.81;100158.95;105777;1255;60428;-68
2024/01/17 04:09:37;;;;;;;38.30;18.90;;;;;;;-7.71;55.82;100159.34;105853;1251;65436;-67
2024/01/17 04:12:04;;;;;;;37.00;16.60;;;;;;;-7.73;56.05;100158.66;105740;1251;60529;-68
2024/01/17 04:14:31;;;;;;;29.60;13.90;;;;;;;-7.75;56.05;100159.19;105800;1251;60523;-67
2024/01/17 04:16:58;;;;;;;29.70;13.50;;;;;;;-7.78;56.03;100160.25;105721;1251;65173;-68
2024/01/17 04:19:26;;;;;;;29.00;13.70;;;;;;;-7.82;55.86;100165.74;105937;1251;60424;-68
2024/01/17 04:21:56;;;;;;;27.40;12.70;;;;;;;-7.92;55.61;100172.15;105658;1253;63831;-68
2024/01/17 04:24:24;;;;;;;27.90;12.90;;;;;;;-8.06;55.54;100176.86;105933;1253;60553;-68
2024/01/17 04:26:54;;;;;;;28.80;13.70;;;;;;;-8.17;55.65;100178.98;105835;1251;60541;-67
2024/01/17 04:29:21;;;;;;;24.30;12.40;;;;;;;-8.22;55.83;100178.50;105861;1256;64890;-66
2024/01/17 04:31:48;;;;;;;22.10;11.40;;;;;;;-8.23;55.97;100181.75;105841;1256;60571;-68
2024/01/17 04:34:15;;;;;;;19.70;10.60;;;;;;;-8.20;56.19;100183.45;105691;1253;64335;-68
2024/01/17 04:36:43;;;;;;;21.70;10.60;;;;;;;-8.18;56.28;100192.84;105717;1257;60335;-68
2024/01/17 04:39:10;;;;;;;19.90;11.90;;;;;;;-8.17;56.32;100197.61;105940;1253;60524;-68
2024/01/17 04:41:37;;;;;;;22.20;12.10;;;;;;;-8.15;56.46;100201.35;105970;1256;65203;-66
2024/01/17 04:44:05;;;;;;;21.20;10.60;;;;;;;-8.15;56.29;100202.71;105947;1251;67070;-68
2024/01/17 04:46:32;;;;;;;18.60;10.50;;;;;;;-8.19;56.25;100202.23;105919;1256;63948;-67
2024/01/17 04:49:00;;;;;;;23.80;11.80;;;;;;;-8.22;56.24;100207.02;105933;1251;60477;-66
2024/01/17 04:51:28;;;;;;;23.90;11.80;;;;;;;-8.27;56.24;100213.91;105717;1251;60444;-67
2024/01/17 04:53:55;;;;;;;26.70;12.80;;;;;;;-8.31;56.31;100216.98;105781;1256;65010;-66
2024/01/17 04:56:23;;;;;;;22.70;11.70;;;;;;;-8.35;56.40;100219.42;105582;1253;60546;-67
2024/01/17 04:58:51;;;;;;;21.10;11.80;;;;;;;-8.39;56.51;100226.80;105541;1251;64068;-67
2024/01/17 05:01:18;;;;;;;23.00;11.50;;;;;;;-8.41;56.67;100227.81;105746;1253;60433;-69
2024/01/17 05:03:45;;;;;;;24.00;12.40;;;;;;;-8.42;56.69;100231.07;105856;1253;60425;-65
2024/01/17 05:06:12;;;;;;;22.10;12.10;;;;;;;-8.42;56.72;100232.09;105846;1260;65186;-67
2024/01/17 05:08:39;;;;;;;21.20;12.20;;;;;;;-8.42;56.71;100233.63;105738;1254;60454;-68
2024/01/17 05:11:06;;;;;;;22.20;12.80;;;;;;;-8.39;56.92;100230.72;105770;1251;64055;-67
2024/01/17 05:13:33;;;;;;;25.40;13.00;;;;;;;-8.34;57.12;100227.77;105777;1251;60460;-67
2024/01/17 05:15:59;;;;;;;26.30;13.20;;;;;;;-8.27;57.21;100227.55;105711;1251;60318;-67
2024/01/17 05:18:26;;;;;;;25.70;13.70;;;;;;;-8.23;57.03;100235.90;105844;1251;63738;-67
2024/01/17 05:20:53;;;;;;;26.50;13.30;;;;;;;-8.23;56.97;100241.36;105937;1256;60427;-67
2024/01/17 05:23:20;;;;;;;25.90;13.20;;;;;;;-8.26;57.00;100242.92;105957;1251;63856;-68
2024/01/17 05:25:46;;;;;;;26.70;13.40;;;;;;;-8.26;57.15;100251.12;105992;1256;60352;-67
2024/01/17 05:28:13;;;;;;;29.50;13.30;;;;;;;-8.25;57.13;100254.88;106012;1251;60560;-67
2024/01/17 05:30:40;;;;;;;23.70;12.40;;;;;;;-8.27;57.05;100260.70;105749;1253;65250;-66
2024/01/17 05:33:07;;;;;;;25.70;13.40;;;;;;;-8.30;57.06;100264.11;106006;1256;60616;-67
2024/01/17 05:35:34;;;;;;;24.90;13.00;;;;;;;-8.30;57.12;100265.14;106035;1252;63661;-67
2024/01/17 05:38:01;;;;;;;22.90;11.90;;;;;;;-8.24;57.36;100269.72;105992;1251;60416;-67
2024/01/17 05:40:28;;;;;;;23.00;12.50;;;;;;;-8.17;57.59;100271.23;106070;1251;60437;-68
2024/01/17 05:42:56;;;;;;;21.20;11.20;;;;;;;-8.08;57.82;100270.67;105933;1256;65044;-67
2024/01/17 05:45:22;;;;;;;25.30;13.40;;;;;;;-8.01;57.78;100270.63;105914;1253;60444;-67
2024/01/17 05:47:49;;;;;;;26.30;14.60;;;;;;;-7.98;57.82;100269.26;105971;1254;63743;-69
2024/01/17 05:50:16;;;;;;;26.10;14.10;;;;;;;-7.93;57.92;100275.37;105675;1251;62066;-66
2024/01/17 05:52:43;;;;;;;30.60;14.00;;;;;;;-7.93;57.84;100280.14;105934;1254;60969;-67
2024/01/17 05:55:10;;;;;;;23.70;12.50;;;;;;;-7.93;57.83;100277.75;105992;1251;65075;-67
2024/01/17 05:57:37;;;;;;;25.90;12.70;;;;;;;-7.94;57.86;100278.62;106015;1251;60459;-67
2024/01/17 06:00:08;;;;;;;29.30;13.50;;;;;;;-7.98;57.86;100282.92;105863;1251;63850;-67
2024/01/17 06:02:39;;;;;;;30.30;14.30;;;;;;;-8.01;57.77;100287.37;105659;1252;60342;-67
2024/01/17 06:05:07;;;;;;;71.20;28.20;;;;;;;-8.03;57.79;100287.89;105627;1253;60578;-68
2024/01/17 06:07:34;;;;;;;78.30;32.80;;;;;;;-8.02;57.87;100289.77;105602;1253;65134;-67
2024/01/17 06:10:01;;;;;;;69.30;28.40;;;;;;;-8.00;58.07;100290.96;105725;1251;60422;-67
2024/01/17 06:12:28;;;;;;;57.30;24.40;;;;;;;-7.95;58.12;100290.25;105781;1256;64638;-68
2024/01/17 06:14:55;;;;;;;57.70;24.10;;;;;;;-7.89;58.23;100296.36;105833;1251;60372;-68
2024/01/17 06:17:21;;;;;;;54.90;24.30;;;;;;;-7.85;58.50;100301.46;105923;1251;60537;-67
2024/01/17 06:19:48;;;;;;;74.80;32.70;;;;;;;-7.79;58.70;100300.91;105658;1257;65291;-66
2024/01/17 06:22:18;;;;;;;155.70;62.80;;;;;;;-7.71;58.84;100302.75;105790;1251;60523;-68
2024/01/17 06:24:46;;;;;;;195.10;75.00;;;;;;;-7.65;59.00;100306.98;105784;1251;63833;-67
2024/01/17 06:27:14;;;;;;;149.20;58.10;;;;;;;-7.60;58.88;100307.13;105845;1251;60336;-67
2024/01/17 06:29:43;;;;;;;106.60;47.10;;;;;;;-7.57;58.86;100308.98;105797;1251;60547;-67
2024/01/17 06:32:11;;;;;;;122.70;49.90;;;;;;;-7.57;58.84;100314.11;105765;1256;65066;-67
2024/01/17 06:34:39;;;;;;;121.70;51.90;;;;;;;-7.59;58.72;100318.74;105830;1251;60447;-67
2024/01/17 06:37:05;;;;;;;117.90;49.20;;;;;;;-7.62;58.72;100321.16;105817;1256;63837;-66
2024/01/17 06:39:33;;;;;;;113.30;49.90;;;;;;;-7.63;58.81;100318.07;105806;1253;60419;-68
2024/01/17 06:42:00;;;;;;;112.50;50.30;;;;;;;-7.62;58.92;100324.74;105919;1256;60425;-69
2024/01/17 06:44:27;;;;;;;109.60;48.00;;;;;;;-7.60;59.00;100328.16;105652;1256;65211;-67
2024/01/17 06:46:55;;;;;;;98.50;46.30;;;;;;;-7.58;58.96;100331.73;105639;1253;60947;-67
2024/01/17 06:49:22;;;;;;;97.60;45.60;;;;;;;-7.56;59.00;100331.20;105739;1253;63923;-67
2024/01/17 06:51:50;;;;;;;89.60;42.60;;;;;;;-7.51;59.05;100332.38;105674;1251;60472;-67
2024/01/17 06:54:17;;;;;;;97.00;42.70;;;;;;;-7.46;59.12;100331.13;105636;1253;60480;-68
2024/01/17 06:56:44;;;;;;;86.20;41.00;;;;;;;-7.39;59.23;100332.28;105564;1256;65259;-68
2024/01/17 06:59:11;;;;;;;93.70;42.70;;;;;;;-7.32;59.35;100336.00;105722;1251;60489;-66
2024/01/17 07:01:39;;;;;;;85.20;38.90;;;;;;;-7.25;59.35;100335.09;105962;1253;64015;-67
2024/01/17 07:04:07;;;;;;;82.90;38.90;;;;;;;-7.19;59.40;100334.35;105740;1251;60537;-67
2024/01/17 07:06:35;;;;;;;64.50;32.40;;;;;;;-7.13;59.45;100334.31;105919;1253;60518;-67
2024/01/17 07:09:02;;;;;;;67.70;33.40;;;;;;;-7.08;59.43;100333.91;105946;1251;65229;-67
2024/01/17 07:11:29;;;;;;;61.20;32.60;;;;;;;-7.00;59.54;100335.22;105869;1253;60464;-67
2024/01/17 07:13:56;;;;;;;66.90;32.50;;;;;;;-6.90;59.63;100334.44;105636;1258;63917;-68
2024/01/17 07:16:24;;;;;;;71.50;33.60;;;;;;;-6.79;59.72;100337.94;105929;1251;60437;-68
2024/01/17 07:18:53;;;;;;;74.20;34.30;;;;;;;-6.67;59.76;100346.20;105948;1251;60427;-65
2024/01/17 07:21:20;;;;;;;60.20;29.70;;;;;;;-6.56;59.75;100349.52;105773;1251;65203;-68
2024/01/17 07:23:47;;;;;;;61.80;31.30;;;;;;;-6.47;59.67;100352.52;105905;1256;60556;-66
2024/01/17 07:26:15;;;;;;;56.60;28.30;;;;;;;-6.40;59.62;100356.73;105885;1251;63795;-68
2024/01/17 07:28:42;;;;;;;56.50;29.40;;;;;;;-6.33;59.47;100355.80;105922;1251;60527;-67
2024/01/17 07:31:09;;;;;;;56.90;29.60;;;;;;;-6.26;59.38;100357.95;105711;1253;60430;-67
2024/01/17 07:33:35;;;;;;;56.20;30.30;;;;;;;-6.18;59.31;100361.80;105663;1256;65086;-66
2024/01/17 07:36:03;;;;;;;49.00;26.60;;;;;;;-6.09;59.33;100365.81;105799;1251;60463;-67
2024/01/17 07:38:30;;;;;;;47.20;25.80;;;;;;;-5.99;59.22;100369.98;105737;1251;64052;-67
2024/01/17 07:40:58;;;;;;;54.00;28.10;;;;;;;-5.91;59.17;100378.76;105642;1256;60371;-67
2024/01/17 07:43:25;;;;;;;50.00;25.90;;;;;;;-5.82;59.17;100380.19;105754;1254;60627;-68
2024/01/17 07:45:52;;;;;;;47.80;26.30;;;;;;;-5.75;59.00;100382.67;105874;1256;65260;-67
2024/01/17 07:48:19;;;;;;;45.90;25.60;;;;;;;-5.70;58.97;100384.15;105782;1253;67515;-67
2024/01/17 07:50:47;;;;;;;45.60;23.80;;;;;;;-5.65;58.86;100381.52;105944;1256;65909;-68
2024/01/17 07:53:14;;;;;;;48.90;26.10;;;;;;;-5.58;58.81;100381.93;105916;1253;60446;-68
2024/01/17 07:55:41;;;;;;;52.40;27.20;;;;;;;-5.47;58.90;100379.89;105825;1253;60454;-68
2024/01/17 07:58:07;;;;;;;61.80;29.80;;;;;;;-5.32;58.75;100383.96;105976;1251;63761;-66
2024/01/17 08:00:34;;;;;;;52.70;28.20;;;;;;;-5.16;58.75;100386.82;105790;1256;60351;-67
2024/01/17 08:03:01;;;;;;;53.20;30.20;;;;;;;-5.01;58.54;100391.73;105870;1251;63777;-67
2024/01/17 08:05:29;;;;;;;58.50;29.90;;;;;;;-4.84;58.34;100397.99;105707;1257;60821;-69
2024/01/17 08:07:56;;;;;;;47.70;25.40;;;;;;;-4.72;58.05;100398.48;105892;1253;60422;-68
2024/01/17 08:10:23;;;;;;;40.60;21.60;;;;;;;-4.67;57.69;100405.27;105813;1253;67070;-67
2024/01/17 08:12:53;;;;;;;37.00;19.50;;;;;;;-4.64;57.46;100407.44;105939;1256;60473;-67
2024/01/17 08:15:29;;;;;;;32.30;17.30;;;;;;;-4.59;57.38;100410.46;105623;1251;65487;-67
2024/01/17 08:17:56;;;;;;;30.30;16.80;;;;;;;-4.52;57.28;100411.20;105943;1251;60504;-67
2024/01/17 08:20:23;;;;;;;31.70;16.80;;;;;;;-4.43;57.11;100414.31;105948;1252;60422;-68
2024/01/17 08:22:51;;;;;;;28.20;15.70;;;;;;;-4.34;57.08;100417.76;105814;1256;67128;-66
2024/01/17 08:25:18;;;;;;;31.60;15.90;;;;;;;-4.22;56.80;100420.30;105882;1253;60454;-68
2024/01/17 08:27:45;;;;;;;27.20;13.80;;;;;;;-4.13;56.61;100417.04;105927;1253;63878;-67
2024/01/17 08:30:12;;;;;;;28.90;15.40;;;;;;;-4.04;56.43;100419.44;105757;1256;60453;-67
2024/01/17 08:32:39;;;;;;;33.60;17.90;;;;;;;-3.94;56.13;100415.11;105860;1253;60445;-67
2024/01/17 08:35:07;;;;;;;32.20;17.30;;;;;;;-3.89;55.82;100413.98;105779;1255;65990;-67
2024/01/17 08:37:35;;;;;;;30.90;17.10;;;;;;;-3.83;55.59;100414.22;105742;1254;60448;-68
2024/01/17 08:40:03;;;;;;;40.00;21.50;;;;;;;-3.78;55.62;100416.69;105931;1252;65650;-67
2024/01/17 08:42:30;;;;;;;37.60;19.60;;;;;;;-3.62;55.62;100421.00;105851;1251;60452;-67
2024/01/17 08:44:57;;;;;;;48.10;28.70;;;;;;;-3.47;55.35;100424.14;105754;1251;60419;-67
2024/01/17 08:47:24;;;;;;;44.10;24.50;;;;;;;-3.35;55.04;100428.52;105904;1256;67138;-68
2024/01/17 08:49:53;;;;;;;35.70;21.50;;;;;;;-3.26;54.75;100429.35;105932;1256;60425;-67
2024/01/17 08:52:20;;;;;;;38.60;21.20;;;;;;;-3.15;54.53;100429.11;105868;1253;64734;-66
2024/01/17 08:54:47;;;;;;;35.70;20.80;;;;;;;-3.06;54.19;100421.16;105743;1258;60569;-66
2024/01/17 08:57:14;;;;;;;43.60;22.80;;;;;;;-2.98;53.79;100416.14;105629;1253;60546;-68
2024/01/17 08:59:41;;;;;;;43.50;22.40;;;;;;;-2.87;53.74;100414.87;105729;1256;65202;-67
2024/01/17 09:02:08;;;;;;;43.00;22.80;;;;;;;-2.75;53.56;100419.04;105781;1251;60482;-67
2024/01/17 09:04:35;;;;;;;38.60;21.80;;;;;;;-2.64;53.26;100423.25;106074;1257;66102;-66
2024/01/17 09:07:03;;;;;;;48.10;26.50;;;;;;;-2.53;52.89;100427.81;105898;1253;60555;-68
2024/01/17 09:09:31;;;;;;;40.30;21.80;;;;;;;-2.42;52.68;100421.15;105951;1255;60305;-68
2024/01/17 09:11:58;;;;;;;39.70;21.40;;;;;;;-2.32;52.40;100421.08;106002;1256;66760;-69
2024/01/17 09:14:25;;;;;;;42.00;23.10;;;;;;;-2.24;52.17;100424.84;105860;1251;60405;-68
2024/01/17 09:16:53;;;;;;;29.60;16.90;;;;;;;-2.17;51.74;100429.13;105776;1253;63890;-68
2024/01/17 09:19:23;;;;;;;24.10;14.00;;;;;;;-2.14;51.66;100424.39;105915;1253;60442;-67
2024/01/17 09:21:51;;;;;;;27.40;16.00;;;;;;;-2.08;51.49;100426.45;105775;1251;60529;-68
2024/01/17 09:24:20;;;;;;;29.70;16.20;;;;;;;-1.98;51.03;100423.44;105861;1251;64000;-67
2024/01/17 09:26:49;;;;;;;23.60;14.50;;;;;;;-1.94;50.69;100423.34;105895;1256;60405;-66
2024/01/17 09:29:16;;;;;;;21.70;12.00;;;;;;;-1.92;50.51;100425.55;105731;1253;65654;-68
2024/01/17 09:31:43;;;;;;;24.70;14.10;;;;;;;-1.93;50.06;100427.11;105917;1251;60361;-68
2024/01/17 09:34:11;;;;;;;23.90;14.10;;;;;;;-1.98;49.70;100431.56;105824;1253;60352;-68
2024/01/17 09:36:38;;;;;;;23.90;14.70;;;;;;;-2.03;49.68;100434.63;105654;1252;65029;-68
2024/01/17 09:39:05;;;;;;;25.70;13.70;;;;;;;-2.03;49.91;100438.93;105715;1253;60438;-67
2024/01/17 09:41:32;;;;;;;23.50;13.10;;;;;;;-2.03;50.02;100438.76;105866;1253;65860;-69
2024/01/17 09:44:00;;;;;;;25.30;13.90;;;;;;;-2.01;50.22;100443.55;105794;1253;60354;-67
2024/01/17 09:46:27;;;;;;;20.40;12.00;;;;;;;-1.96;50.29;100444.61;105861;1256;60371;-69
2024/01/17 09:48:54;;;;;;;24.20;12.50;;;;;;;-1.89;50.23;100438.38;105921;1255;66912;-67
2024/01/17 09:51:22;;;;;;;22.40;13.20;;;;;;;-1.84;50.02;100434.27;105763;1256;60544;-68
2024/01/17 09:53:49;;;;;;;24.20;12.70;;;;;;;-1.80;50.11;100431.73;105751;1254;71557;-66
2024/01/17 09:56:16;;;;;;;21.70;12.50;;;;;;;-1.73;50.29;100429.30;105778;1251;60523;-66
2024/01/17 09:58:44;;;;;;;26.10;14.50;;;;;;;-1.61;50.29;100429.48;105708;1252;61733;-67
2024/01/17 10:01:11;;;;;;;26.00;15.00;;;;;;;-1.50;50.19;100432.27;105746;1252;66843;-67
2024/01/17 10:03:38;;;;;;;23.70;13.80;;;;;;;-1.39;50.09;100433.34;105989;1252;60466;-68
2024/01/17 10:06:07;;;;;;;27.60;15.70;;;;;;;-1.26;50.16;100427.06;105829;1256;73580;-68
2024/01/17 10:08:34;;;;;;;25.50;13.50;;;;;;;-1.10;49.90;100427.44;105782;1255;60539;-69
2024/01/17 10:11:01;;;;;;;21.50;11.90;;;;;;;-0.99;49.49;100423.83;105825;1253;60461;-68
2024/01/17 10:13:27;;;;;;;18.50;11.40;;;;;;;-0.91;49.17;100424.08;105855;1255;67495;-70
2024/01/17 10:15:54;;;;;;;21.30;11.60;;;;;;;-0.84;48.69;100423.55;105877;1256;66304;-68
2024/01/17 10:18:21;;;;;;;25.40;13.50;;;;;;;-0.79;48.50;100425.42;105975;1255;65745;-69
2024/01/17 10:20:48;;;;;;;26.30;15.40;;;;;;;-0.77;48.09;100426.93;105921;1253;60456;-68
2024/01/17 10:23:15;;;;;;;25.90;14.40;;;;;;;-0.80;47.92;100431.19;105742;1256;60370;-68
2024/01/17 10:25:42;;;;;;;24.10;14.80;;;;;;;-0.79;48.25;100426.84;105845;1251;66879;-67
2024/01/17 10:28:08;;;;;;;37.00;23.40;;;;;;;-0.71;48.51;100426.54;105754;1252;60516;-68
2024/01/17 10:30:36;;;;;;;50.40;30.20;;;;;;;-0.60;48.40;100420.16;105724;1255;64591;-68
2024/01/17 10:33:04;;;;;;;38.30;26.60;;;;;;;-0.48;48.27;100413.19;105923;1253;60380;-67
2024/01/17 10:35:31;;;;;;;19.80;12.00;;;;;;;-0.33;48.01;100412.50;105781;1251;60422;-66
2024/01/17 10:37:58;;;;;;;17.30;10.20;;;;;;;-0.19;47.62;100415.29;105736;1251;66939;-69
2024/01/17 10:40:25;;;;;;;13.70;8.50;;;;;;;-0.05;47.29;100408.73;105886;1253;60509;-69
2024/01/17 10:43:09;;;;;;;12.70;6.90;;;;;;;0.06;46.71;100408.20;105758;1253;65909;-67
2024/01/17 10:45:39;;;;;;;12.00;7.60;;;;;;;0.13;46.06;100406.57;105608;1252;60507;-68
2024/01/17 10:48:07;;;;;;;15.10;8.50;;;;;;;0.17;45.69;100400.34;105923;1253;60411;-67
2024/01/17 10:50:34;;;;;;;14.60;7.60;;;;;;;0.15;45.33;100398.01;105955;1254;67038;-68
2024/01/17 10:53:05;;;;;;;17.00;9.80;;;;;;;0.12;45.38;100400.19;105708;1253;60583;-68
2024/01/17 10:55:34;;;;;;;22.70;14.90;;;;;;;0.16;45.81;100396.07;105681;1253;65874;-68
2024/01/17 10:58:09;;;;;;;28.90;17.20;;;;;;;0.24;45.86;100401.10;105680;1253;60524;-68
2024/01/17 11:00:38;;;;;;;27.60;16.70;;;;;;;0.28;45.57;100402.00;105741;1253;60472;-68
2024/01/17 11:03:09;;;;;;;32.10;18.60;;;;;;;0.23;45.49;100400.83;105869;1256;67006;-68
2024/01/17 11:05:46;;;;;;;29.50;19.10;;;;;;;0.21;45.22;100403.33;105812;1253;60651;-69